Winnie, TX (77665)

10:37 PM CDT on September 28, 2016 (GMT -0500)
Burrell Cove | | Change Station

Elev 16 ft 29.89 °N, 94.22 °W | Updated 2 minutes ago

Clear
Clear
70.7 °F
Feels Like 70.7 °F
N
0.0
Wind Variable Wind from NW
Gusts 0.0 mph

Today
High -- | Low -- °F
--% Chance of Precip.
Yesterday
High -- | Low -- °F
Precip. -- in
Pressure 30.05 in
Visibility 10.0 miles
Clouds Clear
Dew Point 66 °F
Humidity 84%
Rainfall 0.00 in
Snow Depth Not available.
7:09 AM 7:05 PM
Waning Crescent, 3% visible
METAR KBMT 290315Z AUTO 00000KT 10SM CLR 22/18 A3005 RMK AO2 T02170176
Pressure 30.05 in
Visibility 10.0 miles
Clouds Clear
Dew Point 66 °F
Humidity 84%
Rainfall 0.00 in
Snow Depth Not available.
7:09 AM 7:05 PM
Waning Crescent, 3% visible
METAR KBMT 290315Z AUTO 00000KT 10SM CLR 22/18 A3005 RMK AO2 T02170176

10-Day Weather Forecast

Almanac

Astronomy

Sep. 28, 2016 Rise Set
Actual Time
Civil Twilight
Nautical Twilight
Astronomical Twilight
Moon
Length of Visible Light
Length of Day
Tomorrow will be .
, % of the Moon is Illuminated

Today's Extremes

State Highs State Lows

Community

WunderPhotos

Upload Photos

1,942,416 photos uploaded!

WunderBlog® & News

Nearby

Air Quality

  Air Quality AQ Index Pollutant
Not available.

Snow Depth

Station Depth Elevation

Earthquake Activity

City Distance Mag. Time & Date
Minimum magnitude displayed is 2.5.

Coastal Water Temperatures

Place Temperature

Stations

Nearby Weather Stations

Station Location Temp. Windchill Dew Point Humidity Wind Precip. Elev Updated Type
                   

Watches & Warnings

There are currently no watches in effect.